sensor_id;sensor_type;location;lat;lon;timestamp;temperature;humidity
49385;DHT22;36795;45.028;38.968;2023-05-10T00:00:14;12.20;89.50
49385;DHT22;36795;45.028;38.968;2023-05-10T00:03:00;12.20;89.40
49385;DHT22;36795;45.028;38.968;2023-05-10T00:05:47;12.20;89.30
49385;DHT22;36795;45.028;38.968;2023-05-10T00:08:33;12.20;89.20
49385;DHT22;36795;45.028;38.968;2023-05-10T00:11:18;12.20;89.20
49385;DHT22;36795;45.028;38.968;2023-05-10T00:14:06;12.20;89.10
49385;DHT22;36795;45.028;38.968;2023-05-10T00:16:51;12.10;88.90
49385;DHT22;36795;45.028;38.968;2023-05-10T00:19:38;12.10;89.00
49385;DHT22;36795;45.028;38.968;2023-05-10T00:22:23;12.10;89.00
49385;DHT22;36795;45.028;38.968;2023-05-10T00:25:10;12.10;89.20
49385;DHT22;36795;45.028;38.968;2023-05-10T00:27:56;12.10;89.20
49385;DHT22;36795;45.028;38.968;2023-05-10T00:30:42;12.10;89.10
49385;DHT22;36795;45.028;38.968;2023-05-10T00:33:28;12.10;89.10
49385;DHT22;36795;45.028;38.968;2023-05-10T00:36:14;12.10;89.00
49385;DHT22;36795;45.028;38.968;2023-05-10T00:39:01;12.10;89.10
49385;DHT22;36795;45.028;38.968;2023-05-10T00:41:49;12.10;89.30
49385;DHT22;36795;45.028;38.968;2023-05-10T00:44:35;12.10;89.10
49385;DHT22;36795;45.028;38.968;2023-05-10T00:47:22;12.00;89.20
49385;DHT22;36795;45.028;38.968;2023-05-10T00:50:08;12.10;89.10
49385;DHT22;36795;45.028;38.968;2023-05-10T00:52:55;12.10;88.70
49385;DHT22;36795;45.028;38.968;2023-05-10T00:55:41;12.10;88.70
49385;DHT22;36795;45.028;38.968;2023-05-10T00:58:28;12.00;88.80
49385;DHT22;36795;45.028;38.968;2023-05-10T01:01:14;12.10;88.80
49385;DHT22;36795;45.028;38.968;2023-05-10T01:04:02;12.10;88.60
49385;DHT22;36795;45.028;38.968;2023-05-10T01:06:48;12.10;88.50
49385;DHT22;36795;45.028;38.968;2023-05-10T01:09:36;12.10;88.40
49385;DHT22;36795;45.028;38.968;2023-05-10T01:12:22;12.10;88.50
49385;DHT22;36795;45.028;38.968;2023-05-10T01:15:09;12.00;88.50
49385;DHT22;36795;45.028;38.968;2023-05-10T01:17:56;12.00;88.60
49385;DHT22;36795;45.028;38.968;2023-05-10T01:20:47;12.00;88.50
49385;DHT22;36795;45.028;38.968;2023-05-10T01:23:44;12.00;88.60
49385;DHT22;36795;45.028;38.968;2023-05-10T01:30:15;12.00;88.60
49385;DHT22;36795;45.028;38.968;2023-05-10T01:36:51;12.00;88.50
49385;DHT22;36795;45.028;38.968;2023-05-10T01:42:51;12.00;88.60
49385;DHT22;36795;45.028;38.968;2023-05-10T01:45:50;12.00;88.50
49385;DHT22;36795;45.028;38.968;2023-05-10T01:48:47;11.90;88.40
49385;DHT22;36795;45.028;38.968;2023-05-10T01:51:49;11.90;88.40
49385;DHT22;36795;45.028;38.968;2023-05-10T01:54:44;11.90;88.20
49385;DHT22;36795;45.028;38.968;2023-05-10T01:57:36;12.00;88.20
49385;DHT22;36795;45.028;38.968;2023-05-10T02:00:25;11.90;88.10
49385;DHT22;36795;45.028;38.968;2023-05-10T02:03:14;11.90;88.10
49385;DHT22;36795;45.028;38.968;2023-05-10T02:06:00;11.90;87.90
49385;DHT22;36795;45.028;38.968;2023-05-10T02:08:49;11.90;87.70
49385;DHT22;36795;45.028;38.968;2023-05-10T02:11:35;11.90;87.80
49385;DHT22;36795;45.028;38.968;2023-05-10T02:14:24;11.90;87.90
49385;DHT22;36795;45.028;38.968;2023-05-10T02:17:12;11.90;87.70
49385;DHT22;36795;45.028;38.968;2023-05-10T02:19:59;11.80;87.90
49385;DHT22;36795;45.028;38.968;2023-05-10T02:22:49;11.90;88.00
49385;DHT22;36795;45.028;38.968;2023-05-10T02:25:37;11.90;87.80
49385;DHT22;36795;45.028;38.968;2023-05-10T02:28:25;11.80;87.80
49385;DHT22;36795;45.028;38.968;2023-05-10T02:31:11;11.80;87.90
49385;DHT22;36795;45.028;38.968;2023-05-10T02:33:59;11.90;87.90
49385;DHT22;36795;45.028;38.968;2023-05-10T02:36:45;11.90;87.90
49385;DHT22;36795;45.028;38.968;2023-05-10T02:39:32;11.90;87.90
49385;DHT22;36795;45.028;38.968;2023-05-10T02:42:20;11.90;87.60
49385;DHT22;36795;45.028;38.968;2023-05-10T02:45:11;11.80;87.60
49385;DHT22;36795;45.028;38.968;2023-05-10T02:47:58;11.80;87.60
49385;DHT22;36795;45.028;38.968;2023-05-10T02:50:47;11.80;87.50
49385;DHT22;36795;45.028;38.968;2023-05-10T02:53:38;11.80;87.70
49385;DHT22;36795;45.028;38.968;2023-05-10T02:56:34;11.90;87.80
49385;DHT22;36795;45.028;38.968;2023-05-10T02:59:21;11.90;87.80
49385;DHT22;36795;45.028;38.968;2023-05-10T03:02:08;11.90;87.50
49385;DHT22;36795;45.028;38.968;2023-05-10T03:04:54;11.90;87.50
49385;DHT22;36795;45.028;38.968;2023-05-10T03:07:40;12.00;87.60
49385;DHT22;36795;45.028;38.968;2023-05-10T03:10:28;12.00;87.50
49385;DHT22;36795;45.028;38.968;2023-05-10T03:16:40;12.00;87.10
49385;DHT22;36795;45.028;38.968;2023-05-10T03:19:56;11.90;87.20
49385;DHT22;36795;45.028;38.968;2023-05-10T03:22:47;11.90;87.10
49385;DHT22;36795;45.028;38.968;2023-05-10T03:25:33;12.00;87.40
49385;DHT22;36795;45.028;38.968;2023-05-10T03:28:21;12.00;87.20
49385;DHT22;36795;45.028;38.968;2023-05-10T03:31:08;12.00;87.00
49385;DHT22;36795;45.028;38.968;2023-05-10T03:33:55;12.00;87.10
49385;DHT22;36795;45.028;38.968;2023-05-10T03:36:42;12.00;87.10
49385;DHT22;36795;45.028;38.968;2023-05-10T03:39:28;11.90;87.30
49385;DHT22;36795;45.028;38.968;2023-05-10T03:42:14;11.90;87.60
49385;DHT22;36795;45.028;38.968;2023-05-10T03:45:03;11.90;87.70
49385;DHT22;36795;45.028;38.968;2023-05-10T03:47:50;11.90;87.70
49385;DHT22;36795;45.028;38.968;2023-05-10T03:50:35;12.00;87.90
49385;DHT22;36795;45.028;38.968;2023-05-10T03:53:21;12.00;87.60
49385;DHT22;36795;45.028;38.968;2023-05-10T03:56:08;12.00;87.40
49385;DHT22;36795;45.028;38.968;2023-05-10T03:58:55;12.00;87.30
49385;DHT22;36795;45.028;38.968;2023-05-10T04:01:41;12.00;87.30
49385;DHT22;36795;45.028;38.968;2023-05-10T04:04:28;12.10;87.20
49385;DHT22;36795;45.028;38.968;2023-05-10T04:07:13;12.00;87.00
49385;DHT22;36795;45.028;38.968;2023-05-10T04:10:00;12.00;86.80
49385;DHT22;36795;45.028;38.968;2023-05-10T04:12:46;12.00;86.80
49385;DHT22;36795;45.028;38.968;2023-05-10T04:15:32;12.00;86.80
49385;DHT22;36795;45.028;38.968;2023-05-10T04:18:18;11.90;86.70
49385;DHT22;36795;45.028;38.968;2023-05-10T04:21:10;11.90;86.60
49385;DHT22;36795;45.028;38.968;2023-05-10T04:23:56;11.90;86.80
49385;DHT22;36795;45.028;38.968;2023-05-10T04:26:42;11.90;86.70
49385;DHT22;36795;45.028;38.968;2023-05-10T04:29:28;11.90;86.60
49385;DHT22;36795;45.028;38.968;2023-05-10T04:32:14;11.90;86.70
49385;DHT22;36795;45.028;38.968;2023-05-10T04:35:01;11.80;86.60
49385;DHT22;36795;45.028;38.968;2023-05-10T04:37:49;11.80;86.70
49385;DHT22;36795;45.028;38.968;2023-05-10T04:40:35;11.80;86.60
49385;DHT22;36795;45.028;38.968;2023-05-10T04:43:21;11.80;86.60
49385;DHT22;36795;45.028;38.968;2023-05-10T04:46:07;11.70;86.70
49385;DHT22;36795;45.028;38.968;2023-05-10T04:48:54;11.80;86.90
49385;DHT22;36795;45.028;38.968;2023-05-10T04:51:39;11.80;86.90
49385;DHT22;36795;45.028;38.968;2023-05-10T04:54:25;11.90;86.80
49385;DHT22;36795;45.028;38.968;2023-05-10T04:57:11;12.00;86.40
49385;DHT22;36795;45.028;38.968;2023-05-10T04:59:58;12.00;86.30
49385;DHT22;36795;45.028;38.968;2023-05-10T05:02:45;12.10;86.20
49385;DHT22;36795;45.028;38.968;2023-05-10T05:05:31;12.20;85.60
49385;DHT22;36795;45.028;38.968;2023-05-10T05:08:17;12.10;85.30
49385;DHT22;36795;45.028;38.968;2023-05-10T05:11:03;12.10;85.30
49385;DHT22;36795;45.028;38.968;2023-05-10T05:13:49;12.00;85.10
49385;DHT22;36795;45.028;38.968;2023-05-10T05:16:36;12.00;85.30
49385;DHT22;36795;45.028;38.968;2023-05-10T05:19:22;12.00;85.50
49385;DHT22;36795;45.028;38.968;2023-05-10T05:22:08;12.00;85.30
49385;DHT22;36795;45.028;38.968;2023-05-10T05:24:55;12.00;85.30
49385;DHT22;36795;45.028;38.968;2023-05-10T05:27:41;12.00;85.20
49385;DHT22;36795;45.028;38.968;2023-05-10T05:30:27;12.00;84.90
49385;DHT22;36795;45.028;38.968;2023-05-10T05:33:14;11.90;84.60
49385;DHT22;36795;45.028;38.968;2023-05-10T05:36:01;11.90;84.70
49385;DHT22;36795;45.028;38.968;2023-05-10T05:38:48;11.90;84.50
49385;DHT22;36795;45.028;38.968;2023-05-10T05:41:33;12.00;84.70
49385;DHT22;36795;45.028;38.968;2023-05-10T05:44:20;12.10;83.80
49385;DHT22;36795;45.028;38.968;2023-05-10T05:47:06;12.20;83.50
49385;DHT22;36795;45.028;38.968;2023-05-10T05:49:52;12.20;83.20
49385;DHT22;36795;45.028;38.968;2023-05-10T05:52:38;12.20;83.00
49385;DHT22;36795;45.028;38.968;2023-05-10T05:55:24;12.10;82.70
49385;DHT22;36795;45.028;38.968;2023-05-10T05:58:11;12.10;82.70
49385;DHT22;36795;45.028;38.968;2023-05-10T06:00:57;12.00;82.80
49385;DHT22;36795;45.028;38.968;2023-05-10T06:03:44;12.00;82.80
49385;DHT22;36795;45.028;38.968;2023-05-10T06:06:31;12.10;82.50
49385;DHT22;36795;45.028;38.968;2023-05-10T06:09:17;12.20;82.40
49385;DHT22;36795;45.028;38.968;2023-05-10T06:12:03;12.40;82.10
49385;DHT22;36795;45.028;38.968;2023-05-10T06:14:49;12.50;81.90
49385;DHT22;36795;45.028;38.968;2023-05-10T06:17:35;12.60;81.60
49385;DHT22;36795;45.028;38.968;2023-05-10T06:20:21;12.60;81.20
49385;DHT22;36795;45.028;38.968;2023-05-10T06:23:07;12.60;81.30
49385;DHT22;36795;45.028;38.968;2023-05-10T06:25:54;12.80;81.00
49385;DHT22;36795;45.028;38.968;2023-05-10T06:28:40;12.80;80.40
49385;DHT22;36795;45.028;38.968;2023-05-10T06:31:27;12.80;80.20
49385;DHT22;36795;45.028;38.968;2023-05-10T06:34:13;12.80;79.40
49385;DHT22;36795;45.028;38.968;2023-05-10T06:36:59;12.90;79.40
49385;DHT22;36795;45.028;38.968;2023-05-10T06:39:45;12.90;79.20
49385;DHT22;36795;45.028;38.968;2023-05-10T06:42:31;13.00;79.20
49385;DHT22;36795;45.028;38.968;2023-05-10T06:45:17;13.20;79.10
49385;DHT22;36795;45.028;38.968;2023-05-10T06:48:04;13.40;77.90
49385;DHT22;36795;45.028;38.968;2023-05-10T06:50:49;13.40;77.50
49385;DHT22;36795;45.028;38.968;2023-05-10T06:53:36;13.50;77.40
49385;DHT22;36795;45.028;38.968;2023-05-10T06:56:21;13.60;75.80
49385;DHT22;36795;45.028;38.968;2023-05-10T06:59:07;13.80;75.20
49385;DHT22;36795;45.028;38.968;2023-05-10T07:01:53;13.90;74.50
49385;DHT22;36795;45.028;38.968;2023-05-10T07:04:40;14.10;74.10
49385;DHT22;36795;45.028;38.968;2023-05-10T07:07:25;14.30;73.40
49385;DHT22;36795;45.028;38.968;2023-05-10T07:10:12;14.40;72.60
49385;DHT22;36795;45.028;38.968;2023-05-10T07:12:57;14.60;72.10
49385;DHT22;36795;45.028;38.968;2023-05-10T07:15:44;14.80;71.30
49385;DHT22;36795;45.028;38.968;2023-05-10T07:18:29;15.00;70.80
49385;DHT22;36795;45.028;38.968;2023-05-10T07:21:15;15.20;70.40
49385;DHT22;36795;45.028;38.968;2023-05-10T07:24:01;15.60;68.00
49385;DHT22;36795;45.028;38.968;2023-05-10T07:26:48;15.80;67.20
49385;DHT22;36795;45.028;38.968;2023-05-10T07:29:34;15.80;65.20
49385;DHT22;36795;45.028;38.968;2023-05-10T07:32:21;15.70;65.50
49385;DHT22;36795;45.028;38.968;2023-05-10T07:35:08;15.30;66.40
49385;DHT22;36795;45.028;38.968;2023-05-10T07:37:54;14.70;67.60
49385;DHT22;36795;45.028;38.968;2023-05-10T07:40:40;14.20;68.80
49385;DHT22;36795;45.028;38.968;2023-05-10T07:43:26;13.90;69.90
49385;DHT22;36795;45.028;38.968;2023-05-10T07:46:12;13.90;70.50
49385;DHT22;36795;45.028;38.968;2023-05-10T07:48:58;14.00;70.10
49385;DHT22;36795;45.028;38.968;2023-05-10T07:51:44;14.20;70.10
49385;DHT22;36795;45.028;38.968;2023-05-10T07:54:30;14.50;69.70
49385;DHT22;36795;45.028;38.968;2023-05-10T07:57:16;14.70;69.10
49385;DHT22;36795;45.028;38.968;2023-05-10T08:00:04;14.90;68.60
49385;DHT22;36795;45.028;38.968;2023-05-10T08:02:58;15.30;67.30
49385;DHT22;36795;45.028;38.968;2023-05-10T08:05:44;15.60;66.70
49385;DHT22;36795;45.028;38.968;2023-05-10T08:08:30;15.70;65.70
49385;DHT22;36795;45.028;38.968;2023-05-10T08:11:17;15.70;65.00
49385;DHT22;36795;45.028;38.968;2023-05-10T08:14:03;16.30;64.40
49385;DHT22;36795;45.028;38.968;2023-05-10T08:16:50;16.40;63.90
49385;DHT22;36795;45.028;38.968;2023-05-10T08:19:35;16.20;63.80
49385;DHT22;36795;45.028;38.968;2023-05-10T08:22:21;15.80;64.00
49385;DHT22;36795;45.028;38.968;2023-05-10T08:25:08;15.30;65.30
49385;DHT22;36795;45.028;38.968;2023-05-10T08:27:54;15.10;66.20
49385;DHT22;36795;45.028;38.968;2023-05-10T08:30:40;15.10;66.60
49385;DHT22;36795;45.028;38.968;2023-05-10T08:33:26;15.20;66.50
49385;DHT22;36795;45.028;38.968;2023-05-10T08:36:12;15.20;66.40
49385;DHT22;36795;45.028;38.968;2023-05-10T08:39:00;15.10;65.60
49385;DHT22;36795;45.028;38.968;2023-05-10T08:41:47;14.80;66.10
49385;DHT22;36795;45.028;38.968;2023-05-10T08:44:35;14.60;66.40
49385;DHT22;36795;45.028;38.968;2023-05-10T08:47:22;14.50;66.10
49385;DHT22;36795;45.028;38.968;2023-05-10T08:50:09;14.30;66.40
49385;DHT22;36795;45.028;38.968;2023-05-10T08:52:59;14.30;67.10
49385;DHT22;36795;45.028;38.968;2023-05-10T08:55:46;14.40;67.40
49385;DHT22;36795;45.028;38.968;2023-05-10T08:58:32;14.60;67.00
49385;DHT22;36795;45.028;38.968;2023-05-10T09:01:19;14.90;66.50
49385;DHT22;36795;45.028;38.968;2023-05-10T09:04:05;15.20;65.60
49385;DHT22;36795;45.028;38.968;2023-05-10T09:06:51;15.90;64.00
49385;DHT22;36795;45.028;38.968;2023-05-10T09:09:37;17.10;61.40
49385;DHT22;36795;45.028;38.968;2023-05-10T09:12:23;18.00;58.90
49385;DHT22;36795;45.028;38.968;2023-05-10T09:15:11;18.10;56.80
49385;DHT22;36795;45.028;38.968;2023-05-10T09:18:00;17.80;56.30
49385;DHT22;36795;45.028;38.968;2023-05-10T09:20:48;17.70;55.40
49385;DHT22;36795;45.028;38.968;2023-05-10T09:23:34;17.50;56.10
49385;DHT22;36795;45.028;38.968;2023-05-10T09:26:23;17.40;56.90
49385;DHT22;36795;45.028;38.968;2023-05-10T09:29:09;17.10;57.50
49385;DHT22;36795;45.028;38.968;2023-05-10T09:31:55;16.60;57.80
49385;DHT22;36795;45.028;38.968;2023-05-10T09:34:42;16.00;59.50
49385;DHT22;36795;45.028;38.968;2023-05-10T09:37:31;15.70;61.00
49385;DHT22;36795;45.028;38.968;2023-05-10T09:40:22;15.70;61.90
49385;DHT22;36795;45.028;38.968;2023-05-10T09:43:08;16.20;60.80
49385;DHT22;36795;45.028;38.968;2023-05-10T09:45:56;16.70;59.60
49385;DHT22;36795;45.028;38.968;2023-05-10T09:48:44;17.00;58.40
49385;DHT22;36795;45.028;38.968;2023-05-10T09:51:31;17.20;57.90
49385;DHT22;36795;45.028;38.968;2023-05-10T09:54:18;17.30;56.70
49385;DHT22;36795;45.028;38.968;2023-05-10T09:57:04;17.40;56.50
49385;DHT22;36795;45.028;38.968;2023-05-10T09:59:50;17.40;56.20
49385;DHT22;36795;45.028;38.968;2023-05-10T10:02:37;17.70;56.20
49385;DHT22;36795;45.028;38.968;2023-05-10T10:05:33;17.90;55.70
49385;DHT22;36795;45.028;38.968;2023-05-10T10:08:21;18.00;54.90
49385;DHT22;36795;45.028;38.968;2023-05-10T10:11:07;17.90;55.10
49385;DHT22;36795;45.028;38.968;2023-05-10T10:13:54;17.90;55.40
49385;DHT22;36795;45.028;38.968;2023-05-10T10:16:40;17.80;56.20
49385;DHT22;36795;45.028;38.968;2023-05-10T10:19:26;17.70;56.30
49385;DHT22;36795;45.028;38.968;2023-05-10T10:22:13;17.10;56.70
49385;DHT22;36795;45.028;38.968;2023-05-10T10:24:59;16.60;57.80
49385;DHT22;36795;45.028;38.968;2023-05-10T10:30:49;16.00;59.60
49385;DHT22;36795;45.028;38.968;2023-05-10T10:33:59;15.80;59.80
49385;DHT22;36795;45.028;38.968;2023-05-10T10:36:47;15.80;59.70
49385;DHT22;36795;45.028;38.968;2023-05-10T10:39:33;15.70;59.90
49385;DHT22;36795;45.028;38.968;2023-05-10T10:42:44;15.90;59.50
49385;DHT22;36795;45.028;38.968;2023-05-10T10:45:31;16.00;58.90
49385;DHT22;36795;45.028;38.968;2023-05-10T10:48:24;16.00;58.40
49385;DHT22;36795;45.028;38.968;2023-05-10T10:51:13;16.00;58.60
49385;DHT22;36795;45.028;38.968;2023-05-10T10:54:11;16.10;58.70
49385;DHT22;36795;45.028;38.968;2023-05-10T10:57:11;16.20;58.30
49385;DHT22;36795;45.028;38.968;2023-05-10T11:03:13;16.50;57.70
49385;DHT22;36795;45.028;38.968;2023-05-10T11:06:02;16.60;57.60
49385;DHT22;36795;45.028;38.968;2023-05-10T11:08:48;16.90;57.30
49385;DHT22;36795;45.028;38.968;2023-05-10T11:11:35;17.40;56.50
49385;DHT22;36795;45.028;38.968;2023-05-10T11:14:22;17.50;56.00
49385;DHT22;36795;45.028;38.968;2023-05-10T11:17:25;17.30;56.70
49385;DHT22;36795;45.028;38.968;2023-05-10T11:20:14;17.00;57.40
49385;DHT22;36795;45.028;38.968;2023-05-10T11:23:11;17.00;58.30
49385;DHT22;36795;45.028;38.968;2023-05-10T11:26:01;17.30;58.00
49385;DHT22;36795;45.028;38.968;2023-05-10T11:28:48;17.70;57.40
49385;DHT22;36795;45.028;38.968;2023-05-10T11:31:35;18.20;56.70
49385;DHT22;36795;45.028;38.968;2023-05-10T11:34:31;18.30;55.90
49385;DHT22;36795;45.028;38.968;2023-05-10T11:37:19;18.10;55.60
49385;DHT22;36795;45.028;38.968;2023-05-10T11:40:05;17.80;56.20
49385;DHT22;36795;45.028;38.968;2023-05-10T11:42:52;17.40;56.90
49385;DHT22;36795;45.028;38.968;2023-05-10T11:45:41;17.00;57.70
49385;DHT22;36795;45.028;38.968;2023-05-10T11:48:29;17.10;58.10
49385;DHT22;36795;45.028;38.968;2023-05-10T11:51:15;17.30;56.50
49385;DHT22;36795;45.028;38.968;2023-05-10T11:54:07;17.30;55.80
49385;DHT22;36795;45.028;38.968;2023-05-10T11:56:54;17.50;55.80
49385;DHT22;36795;45.028;38.968;2023-05-10T11:59:40;17.80;54.50
49385;DHT22;36795;45.028;38.968;2023-05-10T12:02:26;17.90;54.00
49385;DHT22;36795;45.028;38.968;2023-05-10T12:05:13;18.10;53.20
49385;DHT22;36795;45.028;38.968;2023-05-10T12:08:15;18.50;52.10
49385;DHT22;36795;45.028;38.968;2023-05-10T12:11:09;18.70;51.80
49385;DHT22;36795;45.028;38.968;2023-05-10T12:13:59;18.60;52.20
49385;DHT22;36795;45.028;38.968;2023-05-10T12:16:45;18.40;51.60
49385;DHT22;36795;45.028;38.968;2023-05-10T12:19:37;18.50;52.20
49385;DHT22;36795;45.028;38.968;2023-05-10T12:22:24;18.70;51.40
49385;DHT22;36795;45.028;38.968;2023-05-10T12:25:10;18.60;51.50
49385;DHT22;36795;45.028;38.968;2023-05-10T12:27:58;18.60;51.90
49385;DHT22;36795;45.028;38.968;2023-05-10T12:30:46;18.50;52.20
49385;DHT22;36795;45.028;38.968;2023-05-10T12:33:37;18.30;52.40
49385;DHT22;36795;45.028;38.968;2023-05-10T12:36:24;18.20;53.00
49385;DHT22;36795;45.028;38.968;2023-05-10T12:39:11;18.50;53.20
49385;DHT22;36795;45.028;38.968;2023-05-10T12:41:57;18.50;53.00
49385;DHT22;36795;45.028;38.968;2023-05-10T12:44:43;18.50;53.30
49385;DHT22;36795;45.028;38.968;2023-05-10T12:47:29;18.40;54.00
49385;DHT22;36795;45.028;38.968;2023-05-10T12:50:16;18.20;53.40
49385;DHT22;36795;45.028;38.968;2023-05-10T12:53:02;18.10;53.70
49385;DHT22;36795;45.028;38.968;2023-05-10T12:55:48;18.00;54.30
49385;DHT22;36795;45.028;38.968;2023-05-10T12:58:34;17.90;54.50
49385;DHT22;36795;45.028;38.968;2023-05-10T13:01:21;17.80;54.40
49385;DHT22;36795;45.028;38.968;2023-05-10T13:04:06;17.70;54.60
49385;DHT22;36795;45.028;38.968;2023-05-10T13:06:53;17.70;54.20
49385;DHT22;36795;45.028;38.968;2023-05-10T13:09:41;17.70;53.70
49385;DHT22;36795;45.028;38.968;2023-05-10T13:12:27;17.40;53.90
49385;DHT22;36795;45.028;38.968;2023-05-10T13:15:13;17.30;54.40
49385;DHT22;36795;45.028;38.968;2023-05-10T13:17:59;17.20;54.40
49385;DHT22;36795;45.028;38.968;2023-05-10T13:20:45;17.30;54.40
49385;DHT22;36795;45.028;38.968;2023-05-10T13:23:31;17.20;54.10
49385;DHT22;36795;45.028;38.968;2023-05-10T13:26:17;17.00;54.50
49385;DHT22;36795;45.028;38.968;2023-05-10T13:29:03;16.90;55.10
49385;DHT22;36795;45.028;38.968;2023-05-10T13:31:49;16.90;55.10
49385;DHT22;36795;45.028;38.968;2023-05-10T13:34:36;16.80;55.60
49385;DHT22;36795;45.028;38.968;2023-05-10T13:37:22;16.60;55.20
49385;DHT22;36795;45.028;38.968;2023-05-10T13:40:09;16.60;55.60
49385;DHT22;36795;45.028;38.968;2023-05-10T13:42:55;16.50;55.80
49385;DHT22;36795;45.028;38.968;2023-05-10T13:45:42;16.50;55.80
49385;DHT22;36795;45.028;38.968;2023-05-10T13:48:27;16.40;54.90
49385;DHT22;36795;45.028;38.968;2023-05-10T13:51:14;16.20;55.40
49385;DHT22;36795;45.028;38.968;2023-05-10T13:54:00;16.10;55.90
49385;DHT22;36795;45.028;38.968;2023-05-10T13:56:46;16.10;56.20
49385;DHT22;36795;45.028;38.968;2023-05-10T13:59:32;16.00;56.30
49385;DHT22;36795;45.028;38.968;2023-05-10T14:02:19;16.00;56.20
49385;DHT22;36795;45.028;38.968;2023-05-10T14:05:06;15.80;56.40
49385;DHT22;36795;45.028;38.968;2023-05-10T14:07:52;15.70;57.00
49385;DHT22;36795;45.028;38.968;2023-05-10T14:10:38;15.80;56.90
49385;DHT22;36795;45.028;38.968;2023-05-10T14:13:25;15.90;56.60
49385;DHT22;36795;45.028;38.968;2023-05-10T14:16:11;15.90;56.40
49385;DHT22;36795;45.028;38.968;2023-05-10T14:18:57;15.90;56.60
49385;DHT22;36795;45.028;38.968;2023-05-10T14:21:43;15.90;56.50
49385;DHT22;36795;45.028;38.968;2023-05-10T14:24:29;16.00;56.50
49385;DHT22;36795;45.028;38.968;2023-05-10T14:27:15;16.00;56.80
49385;DHT22;36795;45.028;38.968;2023-05-10T14:30:01;16.30;57.00
49385;DHT22;36795;45.028;38.968;2023-05-10T14:32:48;16.90;55.80
49385;DHT22;36795;45.028;38.968;2023-05-10T14:35:33;17.50;54.40
49385;DHT22;36795;45.028;38.968;2023-05-10T14:38:20;17.90;53.00
49385;DHT22;36795;45.028;38.968;2023-05-10T14:41:05;18.30;52.50
49385;DHT22;36795;45.028;38.968;2023-05-10T14:43:52;19.30;50.70
49385;DHT22;36795;45.028;38.968;2023-05-10T14:46:38;20.30;49.00
49385;DHT22;36795;45.028;38.968;2023-05-10T14:49:25;20.70;46.90
49385;DHT22;36795;45.028;38.968;2023-05-10T14:52:11;20.50;46.80
49385;DHT22;36795;45.028;38.968;2023-05-10T14:54:58;20.60;46.70
49385;DHT22;36795;45.028;38.968;2023-05-10T14:57:45;20.80;46.60
49385;DHT22;36795;45.028;38.968;2023-05-10T15:00:33;20.80;46.40
49385;DHT22;36795;45.028;38.968;2023-05-10T15:03:19;20.90;46.60
49385;DHT22;36795;45.028;38.968;2023-05-10T15:06:05;21.00;46.30
49385;DHT22;36795;45.028;38.968;2023-05-10T15:08:51;20.90;46.00
49385;DHT22;36795;45.028;38.968;2023-05-10T15:11:37;20.40;46.30
49385;DHT22;36795;45.028;38.968;2023-05-10T15:14:23;19.60;47.50
49385;DHT22;36795;45.028;38.968;2023-05-10T15:17:10;18.70;48.90
49385;DHT22;36795;45.028;38.968;2023-05-10T15:19:55;17.90;50.10
49385;DHT22;36795;45.028;38.968;2023-05-10T15:22:42;17.10;51.10
49385;DHT22;36795;45.028;38.968;2023-05-10T15:25:28;16.80;52.00
49385;DHT22;36795;45.028;38.968;2023-05-10T15:28:14;16.60;52.30
49385;DHT22;36795;45.028;38.968;2023-05-10T15:31:00;16.40;52.80
49385;DHT22;36795;45.028;38.968;2023-05-10T15:33:46;16.10;53.60
49385;DHT22;36795;45.028;38.968;2023-05-10T15:36:32;15.90;54.40
49385;DHT22;36795;45.028;38.968;2023-05-10T15:39:18;15.60;54.70
49385;DHT22;36795;45.028;38.968;2023-05-10T15:42:04;15.50;55.40
49385;DHT22;36795;45.028;38.968;2023-05-10T15:44:51;15.40;55.90
49385;DHT22;36795;45.028;38.968;2023-05-10T15:47:37;15.30;56.30
49385;DHT22;36795;45.028;38.968;2023-05-10T15:50:25;15.20;56.60
49385;DHT22;36795;45.028;38.968;2023-05-10T15:53:11;15.00;56.80
49385;DHT22;36795;45.028;38.968;2023-05-10T15:55:58;14.90;57.20
49385;DHT22;36795;45.028;38.968;2023-05-10T15:58:43;14.70;57.40
49385;DHT22;36795;45.028;38.968;2023-05-10T16:01:30;14.70;57.90
49385;DHT22;36795;45.028;38.968;2023-05-10T16:04:17;14.60;58.30
49385;DHT22;36795;45.028;38.968;2023-05-10T16:07:03;14.50;58.60
49385;DHT22;36795;45.028;38.968;2023-05-10T16:09:49;14.40;59.00
49385;DHT22;36795;45.028;38.968;2023-05-10T16:12:35;14.30;59.30
49385;DHT22;36795;45.028;38.968;2023-05-10T16:15:22;14.20;59.50
49385;DHT22;36795;45.028;38.968;2023-05-10T16:18:08;14.10;59.90
49385;DHT22;36795;45.028;38.968;2023-05-10T16:20:54;14.10;60.30
49385;DHT22;36795;45.028;38.968;2023-05-10T16:23:40;14.00;60.70
49385;DHT22;36795;45.028;38.968;2023-05-10T16:26:27;13.90;61.00
49385;DHT22;36795;45.028;38.968;2023-05-10T16:29:12;13.80;61.20
49385;DHT22;36795;45.028;38.968;2023-05-10T16:31:58;13.70;61.40
49385;DHT22;36795;45.028;38.968;2023-05-10T16:34:44;13.70;61.60
49385;DHT22;36795;45.028;38.968;2023-05-10T16:37:31;13.60;61.60
49385;DHT22;36795;45.028;38.968;2023-05-10T16:40:17;13.50;61.80
49385;DHT22;36795;45.028;38.968;2023-05-10T16:43:03;13.50;62.10
49385;DHT22;36795;45.028;38.968;2023-05-10T16:45:49;13.30;62.30
49385;DHT22;36795;45.028;38.968;2023-05-10T16:48:35;13.30;62.60
49385;DHT22;36795;45.028;38.968;2023-05-10T16:51:21;13.30;62.80
49385;DHT22;36795;45.028;38.968;2023-05-10T16:54:08;13.30;63.10
49385;DHT22;36795;45.028;38.968;2023-05-10T16:56:54;13.20;63.40
49385;DHT22;36795;45.028;38.968;2023-05-10T16:59:40;13.10;63.90
49385;DHT22;36795;45.028;38.968;2023-05-10T17:02:27;13.10;64.20
49385;DHT22;36795;45.028;38.968;2023-05-10T17:05:14;13.00;64.50
49385;DHT22;36795;45.028;38.968;2023-05-10T17:08:00;13.00;64.90
49385;DHT22;36795;45.028;38.968;2023-05-10T17:10:51;12.90;65.10
49385;DHT22;36795;45.028;38.968;2023-05-10T17:13:37;12.90;65.40
49385;DHT22;36795;45.028;38.968;2023-05-10T17:16:23;12.80;65.70
49385;DHT22;36795;45.028;38.968;2023-05-10T17:19:10;12.80;66.00
49385;DHT22;36795;45.028;38.968;2023-05-10T17:21:57;12.80;66.20
49385;DHT22;36795;45.028;38.968;2023-05-10T17:24:44;12.80;66.50
49385;DHT22;36795;45.028;38.968;2023-05-10T17:27:30;12.80;66.80
49385;DHT22;36795;45.028;38.968;2023-05-10T17:30:16;12.70;67.00
49385;DHT22;36795;45.028;38.968;2023-05-10T17:33:07;12.70;67.30
49385;DHT22;36795;45.028;38.968;2023-05-10T17:36:00;12.60;67.50
49385;DHT22;36795;45.028;38.968;2023-05-10T17:38:47;12.60;67.80